sensor_id;sensor_type;location;lat;lon;timestamp;temperature;humidity
67064;SHT30;58476;48.072;11.970;2023-03-14T00:00:48;20.49;45.86
67064;SHT30;58476;48.072;11.970;2023-03-14T00:03:14;20.46;45.88
67064;SHT30;58476;48.072;11.970;2023-03-14T00:05:40;20.47;45.92
67064;SHT30;58476;48.072;11.970;2023-03-14T00:08:06;20.45;45.96
67064;SHT30;58476;48.072;11.970;2023-03-14T00:10:32;20.45;46.02
67064;SHT30;58476;48.072;11.970;2023-03-14T00:12:57;20.43;46.06
67064;SHT30;58476;48.072;11.970;2023-03-14T00:15:23;20.40;46.08
67064;SHT30;58476;48.072;11.970;2023-03-14T00:17:49;20.43;46.06
67064;SHT30;58476;48.072;11.970;2023-03-14T00:20:15;20.36;46.04
67064;SHT30;58476;48.072;11.970;2023-03-14T00:22:41;20.39;46.09
67064;SHT30;58476;48.072;11.970;2023-03-14T00:25:09;20.36;46.08
67064;SHT30;58476;48.072;11.970;2023-03-14T00:27:35;20.36;46.13
67064;SHT30;58476;48.072;11.970;2023-03-14T00:30:01;20.35;46.13
67064;SHT30;58476;48.072;11.970;2023-03-14T00:32:26;20.35;46.17
67064;SHT30;58476;48.072;11.970;2023-03-14T00:34:52;20.35;46.20
67064;SHT30;58476;48.072;11.970;2023-03-14T00:37:17;20.35;46.19
67064;SHT30;58476;48.072;11.970;2023-03-14T00:39:43;20.32;46.17
67064;SHT30;58476;48.072;11.970;2023-03-14T00:42:08;20.33;46.18
67064;SHT30;58476;48.072;11.970;2023-03-14T00:44:34;20.30;46.18
67064;SHT30;58476;48.072;11.970;2023-03-14T00:46:59;20.29;46.14
67064;SHT30;58476;48.072;11.970;2023-03-14T00:49:24;20.29;46.15
67064;SHT30;58476;48.072;11.970;2023-03-14T00:51:50;20.28;46.23
67064;SHT30;58476;48.072;11.970;2023-03-14T00:54:15;20.28;46.31
67064;SHT30;58476;48.072;11.970;2023-03-14T00:56:41;20.29;46.28
67064;SHT30;58476;48.072;11.970;2023-03-14T00:59:06;20.28;46.34
67064;SHT30;58476;48.072;11.970;2023-03-14T01:01:32;20.26;46.27
67064;SHT30;58476;48.072;11.970;2023-03-14T01:03:57;20.28;46.13
67064;SHT30;58476;48.072;11.970;2023-03-14T01:06:24;20.26;46.15
67064;SHT30;58476;48.072;11.970;2023-03-14T01:08:50;20.28;46.13
67064;SHT30;58476;48.072;11.970;2023-03-14T01:11:24;20.30;46.11
67064;SHT30;58476;48.072;11.970;2023-03-14T01:13:50;20.30;46.09
67064;SHT30;58476;48.072;11.970;2023-03-14T01:16:17;20.36;46.04
67064;SHT30;58476;48.072;11.970;2023-03-14T01:18:44;20.36;46.06
67064;SHT30;58476;48.072;11.970;2023-03-14T01:23:43;20.35;46.31
67064;SHT30;58476;48.072;11.970;2023-03-14T01:26:13;20.35;46.24
67064;SHT30;58476;48.072;11.970;2023-03-14T01:28:40;20.42;46.24
67064;SHT30;58476;48.072;11.970;2023-03-14T01:31:08;20.39;46.24
67064;SHT30;58476;48.072;11.970;2023-03-14T01:33:34;20.42;46.38
67064;SHT30;58476;48.072;11.970;2023-03-14T01:35:59;20.42;46.16
67064;SHT30;58476;48.072;11.970;2023-03-14T01:38:25;20.43;46.22
67064;SHT30;58476;48.072;11.970;2023-03-14T01:40:50;20.43;46.17
67064;SHT30;58476;48.072;11.970;2023-03-14T01:43:18;20.47;46.26
67064;SHT30;58476;48.072;11.970;2023-03-14T01:54:34;20.47;46.35
67064;SHT30;58476;48.072;11.970;2023-03-14T01:57:22;20.49;46.33
67064;SHT30;58476;48.072;11.970;2023-03-14T01:59:53;20.49;46.31
67064;SHT30;58476;48.072;11.970;2023-03-14T02:02:19;20.45;46.12
67064;SHT30;58476;48.072;11.970;2023-03-14T02:04:45;20.45;46.18
67064;SHT30;58476;48.072;11.970;2023-03-14T02:07:40;20.43;46.28
67064;SHT30;58476;48.072;11.970;2023-03-14T02:10:21;20.40;46.40
67064;SHT30;58476;48.072;11.970;2023-03-14T02:12:48;20.38;46.40
67064;SHT30;58476;48.072;11.970;2023-03-14T02:15:25;20.38;46.34
67064;SHT30;58476;48.072;11.970;2023-03-14T02:18:12;20.39;46.38
67064;SHT30;58476;48.072;11.970;2023-03-14T02:21:04;20.35;46.37
67064;SHT30;58476;48.072;11.970;2023-03-14T02:29:31;20.30;46.55
67064;SHT30;58476;48.072;11.970;2023-03-14T02:31:59;20.30;46.63
67064;SHT30;58476;48.072;11.970;2023-03-14T02:34:25;20.29;46.67
67064;SHT30;58476;48.072;11.970;2023-03-14T02:36:51;20.26;46.65
67064;SHT30;58476;48.072;11.970;2023-03-14T02:39:24;20.28;46.72
67064;SHT30;58476;48.072;11.970;2023-03-14T02:41:51;20.26;46.79
67064;SHT30;58476;48.072;11.970;2023-03-14T02:44:17;20.25;46.84
67064;SHT30;58476;48.072;11.970;2023-03-14T02:46:42;20.22;46.84
67064;SHT30;58476;48.072;11.970;2023-03-14T02:49:10;20.21;46.91
67064;SHT30;58476;48.072;11.970;2023-03-14T02:51:37;20.21;46.95
67064;SHT30;58476;48.072;11.970;2023-03-14T02:54:05;20.19;47.04
67064;SHT30;58476;48.072;11.970;2023-03-14T02:56:30;20.19;46.98
67064;SHT30;58476;48.072;11.970;2023-03-14T02:58:56;20.17;47.03
67064;SHT30;58476;48.072;11.970;2023-03-14T03:01:53;20.18;47.07
67064;SHT30;58476;48.072;11.970;2023-03-14T03:04:18;20.14;47.10
67064;SHT30;58476;48.072;11.970;2023-03-14T03:06:45;20.15;47.13
67064;SHT30;58476;48.072;11.970;2023-03-14T03:09:10;20.12;47.15
67064;SHT30;58476;48.072;11.970;2023-03-14T03:11:36;20.12;47.20
67064;SHT30;58476;48.072;11.970;2023-03-14T03:14:03;20.09;47.21
67064;SHT30;58476;48.072;11.970;2023-03-14T03:16:28;20.09;47.19
67064;SHT30;58476;48.072;11.970;2023-03-14T03:18:54;20.07;47.17
67064;SHT30;58476;48.072;11.970;2023-03-14T03:21:19;20.11;47.26
67064;SHT30;58476;48.072;11.970;2023-03-14T03:23:45;20.07;47.26
67064;SHT30;58476;48.072;11.970;2023-03-14T03:26:10;20.09;47.32
67064;SHT30;58476;48.072;11.970;2023-03-14T03:28:35;20.08;47.29
67064;SHT30;58476;48.072;11.970;2023-03-14T03:31:09;20.08;47.28
67064;SHT30;58476;48.072;11.970;2023-03-14T03:33:36;20.07;47.23
67064;SHT30;58476;48.072;11.970;2023-03-14T03:36:01;20.05;47.30
67064;SHT30;58476;48.072;11.970;2023-03-14T03:38:31;20.05;47.33
67064;SHT30;58476;48.072;11.970;2023-03-14T03:41:02;20.05;47.42
67064;SHT30;58476;48.072;11.970;2023-03-14T03:43:28;20.05;47.30
67064;SHT30;58476;48.072;11.970;2023-03-14T03:45:54;20.05;47.17
67064;SHT30;58476;48.072;11.970;2023-03-14T03:48:21;20.07;47.21
67064;SHT30;58476;48.072;11.970;2023-03-14T03:50:47;20.11;47.21
67064;SHT30;58476;48.072;11.970;2023-03-14T03:53:15;20.14;47.37
67064;SHT30;58476;48.072;11.970;2023-03-14T03:55:41;20.14;47.33
67064;SHT30;58476;48.072;11.970;2023-03-14T03:58:07;20.15;47.25
67064;SHT30;58476;48.072;11.970;2023-03-14T04:00:32;20.15;47.16
67064;SHT30;58476;48.072;11.970;2023-03-14T04:02:58;20.18;47.19
67064;SHT30;58476;48.072;11.970;2023-03-14T04:05:23;20.22;47.21
67064;SHT30;58476;48.072;11.970;2023-03-14T04:07:55;20.19;47.25
67064;SHT30;58476;48.072;11.970;2023-03-14T04:10:24;20.22;47.18
67064;SHT30;58476;48.072;11.970;2023-03-14T04:13:02;20.24;47.16
67064;SHT30;58476;48.072;11.970;2023-03-14T04:15:30;20.25;47.07
67064;SHT30;58476;48.072;11.970;2023-03-14T04:17:58;20.22;47.06
67064;SHT30;58476;48.072;11.970;2023-03-14T04:20:24;20.28;47.06
67064;SHT30;58476;48.072;11.970;2023-03-14T04:22:49;20.28;47.04
67064;SHT30;58476;48.072;11.970;2023-03-14T04:25:14;20.26;46.98
67064;SHT30;58476;48.072;11.970;2023-03-14T04:27:44;20.26;46.97
67064;SHT30;58476;48.072;11.970;2023-03-14T04:30:17;20.29;46.96
67064;SHT30;58476;48.072;11.970;2023-03-14T04:32:55;20.28;46.94
67064;SHT30;58476;48.072;11.970;2023-03-14T04:35:23;20.28;46.93
67064;SHT30;58476;48.072;11.970;2023-03-14T04:37:52;20.28;47.04
67064;SHT30;58476;48.072;11.970;2023-03-14T04:40:19;20.25;46.94
67064;SHT30;58476;48.072;11.970;2023-03-14T04:42:45;20.24;46.87
67064;SHT30;58476;48.072;11.970;2023-03-14T04:45:10;20.25;46.89
67064;SHT30;58476;48.072;11.970;2023-03-14T04:47:37;20.21;46.98
67064;SHT30;58476;48.072;11.970;2023-03-14T04:50:03;20.19;46.93
67064;SHT30;58476;48.072;11.970;2023-03-14T04:52:29;20.19;46.88
67064;SHT30;58476;48.072;11.970;2023-03-14T04:54:55;20.22;46.88
67064;SHT30;58476;48.072;11.970;2023-03-14T04:57:23;20.17;46.84
67064;SHT30;58476;48.072;11.970;2023-03-14T04:59:49;20.15;46.86
67064;SHT30;58476;48.072;11.970;2023-03-14T05:02:34;20.12;46.92
67064;SHT30;58476;48.072;11.970;2023-03-14T05:05:17;20.12;46.93
67064;SHT30;58476;48.072;11.970;2023-03-14T05:08:00;20.08;46.96
67064;SHT30;58476;48.072;11.970;2023-03-14T05:10:40;20.07;47.31
67064;SHT30;58476;48.072;11.970;2023-03-14T05:13:24;20.08;47.37
67064;SHT30;58476;48.072;11.970;2023-03-14T05:16:09;20.09;47.50
67064;SHT30;58476;48.072;11.970;2023-03-14T05:18:44;20.09;47.60
67064;SHT30;58476;48.072;11.970;2023-03-14T05:21:29;20.09;47.60
67064;SHT30;58476;48.072;11.970;2023-03-14T05:24:09;20.17;47.88
67064;SHT30;58476;48.072;11.970;2023-03-14T05:26:57;20.12;47.89
67064;SHT30;58476;48.072;11.970;2023-03-14T05:29:47;20.14;47.98
67064;SHT30;58476;48.072;11.970;2023-03-14T05:32:21;20.15;47.59
67064;SHT30;58476;48.072;11.970;2023-03-14T05:35:07;20.15;47.93
67064;SHT30;58476;48.072;11.970;2023-03-14T05:37:42;20.15;47.96
67064;SHT30;58476;48.072;11.970;2023-03-14T05:40:19;20.18;48.16
67064;SHT30;58476;48.072;11.970;2023-03-14T05:43:08;20.21;48.14
67064;SHT30;58476;48.072;11.970;2023-03-14T05:45:34;20.19;48.42
67064;SHT30;58476;48.072;11.970;2023-03-14T05:48:18;20.17;48.35
67064;SHT30;58476;48.072;11.970;2023-03-14T05:51:09;20.12;48.46
67064;SHT30;58476;48.072;11.970;2023-03-14T05:53:53;20.09;48.42
67064;SHT30;58476;48.072;11.970;2023-03-14T05:56:37;20.12;48.29
67064;SHT30;58476;48.072;11.970;2023-03-14T05:59:11;20.19;48.81
67064;SHT30;58476;48.072;11.970;2023-03-14T06:01:43;20.22;48.71
67064;SHT30;58476;48.072;11.970;2023-03-14T06:04:18;20.24;48.76
67064;SHT30;58476;48.072;11.970;2023-03-14T06:06:48;20.24;48.50
67064;SHT30;58476;48.072;11.970;2023-03-14T06:09:15;20.22;48.60
67064;SHT30;58476;48.072;11.970;2023-03-14T06:11:42;20.22;48.46
67064;SHT30;58476;48.072;11.970;2023-03-14T06:14:07;20.19;48.57
67064;SHT30;58476;48.072;11.970;2023-03-14T06:16:32;20.19;48.15
67064;SHT30;58476;48.072;11.970;2023-03-14T06:18:59;20.19;47.96
67064;SHT30;58476;48.072;11.970;2023-03-14T06:21:25;20.19;48.03
67064;SHT30;58476;48.072;11.970;2023-03-14T06:23:50;20.19;47.56
67064;SHT30;58476;48.072;11.970;2023-03-14T06:26:16;20.17;47.74
67064;SHT30;58476;48.072;11.970;2023-03-14T06:28:42;20.19;47.75
67064;SHT30;58476;48.072;11.970;2023-03-14T06:31:07;20.18;47.50
67064;SHT30;58476;48.072;11.970;2023-03-14T06:33:41;20.19;47.48
67064;SHT30;58476;48.072;11.970;2023-03-14T06:36:07;20.19;47.29
67064;SHT30;58476;48.072;11.970;2023-03-14T06:38:34;20.17;47.22
67064;SHT30;58476;48.072;11.970;2023-03-14T06:41:04;20.17;47.28
67064;SHT30;58476;48.072;11.970;2023-03-14T06:43:34;20.18;47.09
67064;SHT30;58476;48.072;11.970;2023-03-14T06:45:59;20.19;47.06
67064;SHT30;58476;48.072;11.970;2023-03-14T06:48:25;20.18;47.07
67064;SHT30;58476;48.072;11.970;2023-03-14T06:50:52;20.19;46.99
67064;SHT30;58476;48.072;11.970;2023-03-14T06:53:17;20.19;46.77
67064;SHT30;58476;48.072;11.970;2023-03-14T06:55:43;20.19;46.91
67064;SHT30;58476;48.072;11.970;2023-03-14T06:58:09;20.24;47.90
67064;SHT30;58476;48.072;11.970;2023-03-14T07:00:40;20.22;48.59
67064;SHT30;58476;48.072;11.970;2023-03-14T07:03:06;20.24;48.75
67064;SHT30;58476;48.072;11.970;2023-03-14T07:05:36;20.25;48.36
67064;SHT30;58476;48.072;11.970;2023-03-14T07:08:01;20.21;48.46
67064;SHT30;58476;48.072;11.970;2023-03-14T07:10:27;20.15;48.19
67064;SHT30;58476;48.072;11.970;2023-03-14T07:12:53;20.15;48.46
67064;SHT30;58476;48.072;11.970;2023-03-14T07:15:19;20.14;48.42
67064;SHT30;58476;48.072;11.970;2023-03-14T07:17:48;20.11;48.29
67064;SHT30;58476;48.072;11.970;2023-03-14T07:20:14;20.11;48.21
67064;SHT30;58476;48.072;11.970;2023-03-14T07:22:39;20.11;48.29
67064;SHT30;58476;48.072;11.970;2023-03-14T07:25:05;20.07;48.42
67064;SHT30;58476;48.072;11.970;2023-03-14T07:27:31;20.07;48.41
67064;SHT30;58476;48.072;11.970;2023-03-14T07:29:57;20.08;48.42
67064;SHT30;58476;48.072;11.970;2023-03-14T07:32:22;20.04;48.37
67064;SHT30;58476;48.072;11.970;2023-03-14T07:34:47;20.05;48.38
67064;SHT30;58476;48.072;11.970;2023-03-14T07:37:14;20.02;48.30
67064;SHT30;58476;48.072;11.970;2023-03-14T07:39:39;20.02;48.27
67064;SHT30;58476;48.072;11.970;2023-03-14T07:42:14;20.04;48.29
67064;SHT30;58476;48.072;11.970;2023-03-14T07:45:09;19.99;48.18
67064;SHT30;58476;48.072;11.970;2023-03-14T07:47:35;19.99;48.14
67064;SHT30;58476;48.072;11.970;2023-03-14T07:50:00;19.95;47.94
67064;SHT30;58476;48.072;11.970;2023-03-14T07:52:26;19.97;48.16
67064;SHT30;58476;48.072;11.970;2023-03-14T07:54:51;19.95;48.17
67064;SHT30;58476;48.072;11.970;2023-03-14T07:57:16;19.92;48.17
67064;SHT30;58476;48.072;11.970;2023-03-14T07:59:42;19.92;48.07
67064;SHT30;58476;48.072;11.970;2023-03-14T08:02:10;19.91;47.98
67064;SHT30;58476;48.072;11.970;2023-03-14T08:04:36;19.92;47.94
67064;SHT30;58476;48.072;11.970;2023-03-14T08:07:01;19.88;47.78
67064;SHT30;58476;48.072;11.970;2023-03-14T08:09:27;19.88;47.66
67064;SHT30;58476;48.072;11.970;2023-03-14T08:11:52;19.89;47.61
67064;SHT30;58476;48.072;11.970;2023-03-14T08:14:17;19.88;47.61
67064;SHT30;58476;48.072;11.970;2023-03-14T08:16:43;19.87;47.77
67064;SHT30;58476;48.072;11.970;2023-03-14T08:19:08;19.87;47.75
67064;SHT30;58476;48.072;11.970;2023-03-14T08:21:33;19.84;47.79
67064;SHT30;58476;48.072;11.970;2023-03-14T08:23:59;19.82;47.66
67064;SHT30;58476;48.072;11.970;2023-03-14T08:26:24;19.82;47.70
67064;SHT30;58476;48.072;11.970;2023-03-14T08:28:49;19.84;47.78
67064;SHT30;58476;48.072;11.970;2023-03-14T08:31:15;19.82;47.65
67064;SHT30;58476;48.072;11.970;2023-03-14T08:33:40;19.81;47.76
67064;SHT30;58476;48.072;11.970;2023-03-14T08:36:06;19.81;47.68
67064;SHT30;58476;48.072;11.970;2023-03-14T08:38:31;19.79;47.89
67064;SHT30;58476;48.072;11.970;2023-03-14T08:40:57;19.77;47.79
67064;SHT30;58476;48.072;11.970;2023-03-14T08:43:23;19.81;47.79
67064;SHT30;58476;48.072;11.970;2023-03-14T08:45:48;19.79;47.50
67064;SHT30;58476;48.072;11.970;2023-03-14T08:48:14;19.84;47.46
67064;SHT30;58476;48.072;11.970;2023-03-14T08:50:39;19.85;46.96
67064;SHT30;58476;48.072;11.970;2023-03-14T08:53:04;19.87;47.26
67064;SHT30;58476;48.072;11.970;2023-03-14T08:55:29;19.87;47.33
67064;SHT30;58476;48.072;11.970;2023-03-14T08:57:55;19.88;47.36
67064;SHT30;58476;48.072;11.970;2023-03-14T09:00:20;19.91;47.17
67064;SHT30;58476;48.072;11.970;2023-03-14T09:02:46;19.88;47.14
67064;SHT30;58476;48.072;11.970;2023-03-14T09:05:12;19.94;47.11
67064;SHT30;58476;48.072;11.970;2023-03-14T09:07:37;19.94;47.05
67064;SHT30;58476;48.072;11.970;2023-03-14T09:10:03;19.95;46.93
67064;SHT30;58476;48.072;11.970;2023-03-14T09:12:29;19.98;46.93
67064;SHT30;58476;48.072;11.970;2023-03-14T09:14:54;19.99;46.81
67064;SHT30;58476;48.072;11.970;2023-03-14T09:17:20;20.01;47.00
67064;SHT30;58476;48.072;11.970;2023-03-14T09:19:45;20.01;46.82
67064;SHT30;58476;48.072;11.970;2023-03-14T09:22:11;20.01;47.00
67064;SHT30;58476;48.072;11.970;2023-03-14T09:24:36;20.02;46.83
67064;SHT30;58476;48.072;11.970;2023-03-14T09:27:01;20.04;47.06
67064;SHT30;58476;48.072;11.970;2023-03-14T09:29:27;20.04;46.99
67064;SHT30;58476;48.072;11.970;2023-03-14T09:31:52;20.04;47.02
67064;SHT30;58476;48.072;11.970;2023-03-14T09:34:17;20.05;47.10
67064;SHT30;58476;48.072;11.970;2023-03-14T09:36:43;20.05;46.96
67064;SHT30;58476;48.072;11.970;2023-03-14T09:39:08;20.05;46.95
67064;SHT30;58476;48.072;11.970;2023-03-14T09:41:37;20.02;46.99
67064;SHT30;58476;48.072;11.970;2023-03-14T09:46:46;20.01;47.05
67064;SHT30;58476;48.072;11.970;2023-03-14T09:49:21;19.99;47.21
67064;SHT30;58476;48.072;11.970;2023-03-14T09:51:51;19.97;47.11
67064;SHT30;58476;48.072;11.970;2023-03-14T09:57:13;19.92;47.09
67064;SHT30;58476;48.072;11.970;2023-03-14T09:59:41;19.89;47.11
67064;SHT30;58476;48.072;11.970;2023-03-14T10:02:21;19.91;47.11
67064;SHT30;58476;48.072;11.970;2023-03-14T10:04:49;19.92;47.15
67064;SHT30;58476;48.072;11.970;2023-03-14T10:07:18;19.88;47.24
67064;SHT30;58476;48.072;11.970;2023-03-14T10:09:47;19.88;47.35
67064;SHT30;58476;48.072;11.970;2023-03-14T10:12:13;19.87;47.32
67064;SHT30;58476;48.072;11.970;2023-03-14T10:14:46;19.85;47.35
67064;SHT30;58476;48.072;11.970;2023-03-14T10:17:13;19.85;47.41
67064;SHT30;58476;48.072;11.970;2023-03-14T10:19:58;19.85;47.41
67064;SHT30;58476;48.072;11.970;2023-03-14T10:22:30;19.84;47.34
67064;SHT30;58476;48.072;11.970;2023-03-14T10:25:25;19.84;47.37
67064;SHT30;58476;48.072;11.970;2023-03-14T10:27:44;19.82;47.37
67064;SHT30;58476;48.072;11.970;2023-03-14T10:30:29;19.82;47.57
67064;SHT30;58476;48.072;11.970;2023-03-14T10:32:55;19.84;47.83
67064;SHT30;58476;48.072;11.970;2023-03-14T10:35:22;19.79;48.04
67064;SHT30;58476;48.072;11.970;2023-03-14T10:37:53;19.82;47.97
67064;SHT30;58476;48.072;11.970;2023-03-14T10:40:26;19.79;47.86
67064;SHT30;58476;48.072;11.970;2023-03-14T10:42:52;19.81;47.99
67064;SHT30;58476;48.072;11.970;2023-03-14T10:45:38;19.81;47.81
67064;SHT30;58476;48.072;11.970;2023-03-14T10:48:22;19.82;48.15
67064;SHT30;58476;48.072;11.970;2023-03-14T10:50:50;19.82;48.10
67064;SHT30;58476;48.072;11.970;2023-03-14T10:53:18;19.82;47.94
67064;SHT30;58476;48.072;11.970;2023-03-14T10:55:44;19.84;48.17
67064;SHT30;58476;48.072;11.970;2023-03-14T10:58:27;19.82;48.19
67064;SHT30;58476;48.072;11.970;2023-03-14T11:03:35;19.85;48.23
67064;SHT30;58476;48.072;11.970;2023-03-14T11:06:06;19.85;48.25
67064;SHT30;58476;48.072;11.970;2023-03-14T11:09:06;19.88;48.20
67064;SHT30;58476;48.072;11.970;2023-03-14T11:11:36;19.89;48.09
67064;SHT30;58476;48.072;11.970;2023-03-14T11:14:16;19.92;48.18
67064;SHT30;58476;48.072;11.970;2023-03-14T11:16:56;19.94;48.25
67064;SHT30;58476;48.072;11.970;2023-03-14T11:22:21;20.02;48.09
67064;SHT30;58476;48.072;11.970;2023-03-14T11:30:19;20.18;48.16
67064;SHT30;58476;48.072;11.970;2023-03-14T11:33:24;20.22;48.05
67064;SHT30;58476;48.072;11.970;2023-03-14T11:38:43;20.25;48.22
67064;SHT30;58476;48.072;11.970;2023-03-14T11:41:17;20.26;47.99
67064;SHT30;58476;48.072;11.970;2023-03-14T11:43:48;20.32;48.06
67064;SHT30;58476;48.072;11.970;2023-03-14T11:46:24;20.30;48.32
67064;SHT30;58476;48.072;11.970;2023-03-14T11:51:59;20.33;48.13
67064;SHT30;58476;48.072;11.970;2023-03-14T11:57:03;20.36;48.10
67064;SHT30;58476;48.072;11.970;2023-03-14T11:59:38;20.40;48.01
67064;SHT30;58476;48.072;11.970;2023-03-14T12:02:16;20.46;47.90
67064;SHT30;58476;48.072;11.970;2023-03-14T12:07:23;20.47;47.88
67064;SHT30;58476;48.072;11.970;2023-03-14T12:09:51;20.47;47.85
67064;SHT30;58476;48.072;11.970;2023-03-14T12:12:20;20.43;47.63
67064;SHT30;58476;48.072;11.970;2023-03-14T12:14:56;20.43;48.08
67064;SHT30;58476;48.072;11.970;2023-03-14T12:17:34;20.43;48.09
67064;SHT30;58476;48.072;11.970;2023-03-14T12:23:01;20.46;48.23
67064;SHT30;58476;48.072;11.970;2023-03-14T12:25:31;20.52;49.72
67064;SHT30;58476;48.072;11.970;2023-03-14T12:30:40;20.67;52.63
67064;SHT30;58476;48.072;11.970;2023-03-14T12:35:48;20.70;54.64
67064;SHT30;58476;48.072;11.970;2023-03-14T12:43:46;20.80;55.40
67064;SHT30;58476;48.072;11.970;2023-03-14T12:48:50;20.90;55.02
67064;SHT30;58476;48.072;11.970;2023-03-14T12:51:20;20.90;54.15
67064;SHT30;58476;48.072;11.970;2023-03-14T13:04:45;20.77;50.28
67064;SHT30;58476;48.072;11.970;2023-03-14T13:07:33;20.73;50.52
67064;SHT30;58476;48.072;11.970;2023-03-14T13:12:36;20.69;50.22
67064;SHT30;58476;48.072;11.970;2023-03-14T13:15:11;20.65;50.08
67064;SHT30;58476;48.072;11.970;2023-03-14T13:17:39;20.62;49.63
67064;SHT30;58476;48.072;11.970;2023-03-14T13:20:28;20.57;49.52
67064;SHT30;58476;48.072;11.970;2023-03-14T13:22:54;20.52;49.26
67064;SHT30;58476;48.072;11.970;2023-03-14T13:25:20;20.55;49.11
67064;SHT30;58476;48.072;11.970;2023-03-14T13:27:45;20.53;49.02
67064;SHT30;58476;48.072;11.970;2023-03-14T13:30:29;20.50;48.78
67064;SHT30;58476;48.072;11.970;2023-03-14T13:33:03;20.55;48.57
67064;SHT30;58476;48.072;11.970;2023-03-14T13:35:38;20.56;48.51
67064;SHT30;58476;48.072;11.970;2023-03-14T13:38:04;20.62;48.27
67064;SHT30;58476;48.072;11.970;2023-03-14T13:40:33;20.80;48.20
67064;SHT30;58476;48.072;11.970;2023-03-14T13:43:02;20.84;47.81
67064;SHT30;58476;48.072;11.970;2023-03-14T13:45:28;20.87;47.73
67064;SHT30;58476;48.072;11.970;2023-03-14T13:47:53;20.88;47.76
67064;SHT30;58476;48.072;11.970;2023-03-14T13:50:19;20.87;47.76
67064;SHT30;58476;48.072;11.970;2023-03-14T13:52:44;20.86;47.98
67064;SHT30;58476;48.072;11.970;2023-03-14T13:55:18;20.93;48.60
67064;SHT30;58476;48.072;11.970;2023-03-14T13:57:54;20.96;48.66
67064;SHT30;58476;48.072;11.970;2023-03-14T14:00:25;20.97;48.34
67064;SHT30;58476;48.072;11.970;2023-03-14T14:02:50;20.97;48.41
67064;SHT30;58476;48.072;11.970;2023-03-14T14:05:16;20.94;48.25
67064;SHT30;58476;48.072;11.970;2023-03-14T14:07:43;20.96;48.30
67064;SHT30;58476;48.072;11.970;2023-03-14T14:10:11;20.96;48.31
67064;SHT30;58476;48.072;11.970;2023-03-14T14:12:59;20.97;48.72
67064;SHT30;58476;48.072;11.970;2023-03-14T14:15:27;21.00;49.11
67064;SHT30;58476;48.072;11.970;2023-03-14T14:17:57;21.00;49.02
67064;SHT30;58476;48.072;11.970;2023-03-14T14:20:24;20.98;49.10
67064;SHT30;58476;48.072;11.970;2023-03-14T14:22:51;21.00;49.51
67064;SHT30;58476;48.072;11.970;2023-03-14T14:25:17;20.98;49.17
67064;SHT30;58476;48.072;11.970;2023-03-14T14:27:46;20.96;49.14
67064;SHT30;58476;48.072;11.970;2023-03-14T14:32:44;20.90;49.06
67064;SHT30;58476;48.072;11.970;2023-03-14T14:35:22;20.86;48.78
67064;SHT30;58476;48.072;11.970;2023-03-14T14:37:48;20.86;48.68
67064;SHT30;58476;48.072;11.970;2023-03-14T14:40:21;20.86;49.30
67064;SHT30;58476;48.072;11.970;2023-03-14T14:42:47;20.81;49.25
67064;SHT30;58476;48.072;11.970;2023-03-14T14:45:16;20.81;49.29
67064;SHT30;58476;48.072;11.970;2023-03-14T14:47:53;20.79;49.16
67064;SHT30;58476;48.072;11.970;2023-03-14T14:50:27;20.80;49.15
67064;SHT30;58476;48.072;11.970;2023-03-14T14:52:57;20.77;49.12
67064;SHT30;58476;48.072;11.970;2023-03-14T14:55:22;20.79;49.70
67064;SHT30;58476;48.072;11.970;2023-03-14T14:57:50;20.77;49.64
67064;SHT30;58476;48.072;11.970;2023-03-14T15:00:23;20.81;49.61
67064;SHT30;58476;48.072;11.970;2023-03-14T15:02:51;20.84;49.63
67064;SHT30;58476;48.072;11.970;2023-03-14T15:05:21;20.88;49.75
67064;SHT30;58476;48.072;11.970;2023-03-14T15:07:47;20.88;49.75
67064;SHT30;58476;48.072;11.970;2023-03-14T15:10:15;20.90;49.72
67064;SHT30;58476;48.072;11.970;2023-03-14T15:12:41;20.94;49.72
67064;SHT30;58476;48.072;11.970;2023-03-14T15:15:07;20.94;49.75
67064;SHT30;58476;48.072;11.970;2023-03-14T15:17:33;20.90;49.72
67064;SHT30;58476;48.072;11.970;2023-03-14T15:19:58;20.93;49.67
67064;SHT30;58476;48.072;11.970;2023-03-14T15:22:24;20.94;49.58
67064;SHT30;58476;48.072;11.970;2023-03-14T15:24:49;20.97;51.97
67064;SHT30;58476;48.072;11.970;2023-03-14T15:27:16;21.07;53.44
67064;SHT30;58476;48.072;11.970;2023-03-14T15:29:42;21.14;52.22
67064;SHT30;58476;48.072;11.970;2023-03-14T15:32:11;21.10;50.35
67064;SHT30;58476;48.072;11.970;2023-03-14T15:34:36;21.07;49.64
67064;SHT30;58476;48.072;11.970;2023-03-14T15:37:02;21.06;49.34
67064;SHT30;58476;48.072;11.970;2023-03-14T15:39:27;21.08;49.62
67064;SHT30;58476;48.072;11.970;2023-03-14T15:41:52;21.04;49.77
67064;SHT30;58476;48.072;11.970;2023-03-14T15:44:18;21.06;49.12
67064;SHT30;58476;48.072;11.970;2023-03-14T15:46:43;21.10;49.34
67064;SHT30;58476;48.072;11.970;2023-03-14T15:49:09;21.14;49.31
67064;SHT30;58476;48.072;11.970;2023-03-14T15:51:34;21.18;49.56
67064;SHT30;58476;48.072;11.970;2023-03-14T15:54:00;21.24;49.71
67064;SHT30;58476;48.072;11.970;2023-03-14T15:56:26;21.30;49.23
67064;SHT30;58476;48.072;11.970;2023-03-14T15:58:51;21.35;49.63
67064;SHT30;58476;48.072;11.970;2023-03-14T16:01:16;21.37;49.97
67064;SHT30;58476;48.072;11.970;2023-03-14T16:03:45;21.44;49.51
67064;SHT30;58476;48.072;11.970;2023-03-14T16:06:11;21.48;49.71
67064;SHT30;58476;48.072;11.970;2023-03-14T16:08:37;21.48;49.24
67064;SHT30;58476;48.072;11.970;2023-03-14T16:11:02;21.49;49.08
67064;SHT30;58476;48.072;11.970;2023-03-14T16:13:28;21.51;48.86
67064;SHT30;58476;48.072;11.970;2023-03-14T16:15:58;21.52;48.78
67064;SHT30;58476;48.072;11.970;2023-03-14T16:18:24;21.54;48.64
67064;SHT30;58476;48.072;11.970;2023-03-14T16:21:04;21.54;48.64
67064;SHT30;58476;48.072;11.970;2023-03-14T16:23:30;21.58;48.40
67064;SHT30;58476;48.072;11.970;2023-03-14T16:25:56;21.61;48.39
67064;SHT30;58476;48.072;11.970;2023-03-14T16:28:21;21.68;48.31
67064;SHT30;58476;48.072;11.970;2023-03-14T16:30:47;21.71;48.52
67064;SHT30;58476;48.072;11.970;2023-03-14T16:33:13;21.79;48.26
67064;SHT30;58476;48.072;11.970;2023-03-14T16:35:39;21.79;48.43
67064;SHT30;58476;48.072;11.970;2023-03-14T16:38:05;21.83;48.26
67064;SHT30;58476;48.072;11.970;2023-03-14T16:40:30;21.92;49.11
67064;SHT30;58476;48.072;11.970;2023-03-14T16:42:56;22.02;49.65
67064;SHT30;58476;48.072;11.970;2023-03-14T16:45:21;22.10;49.99